Fairview Valley, Nevada Weather observations

Data are for observation ending at time listed.
 Day   Time    Ave.   Ave.  Ave.  Vector   Max.   Stn.    Total    Solar   Ave.   Ave.    #1       #2
  of    of     Air    Rel.  Wind   Wind    Wind   Baro.  Precip.   Rad.    Soil   Vis.   Cloud   Cloud
Year   Day     Temp.  Hum.  Speed  Dir.    Gust   Pres.                    Temp.          Ceil    Ceil
2015   (PST)    F      %     mph   deg.    mph     mb.     in.     W/m2     F     (km)   k ft.   k ft.
------------------------------------------------------------------------------------------------------
 184    8:50  999.0   999  999.0   999    999.0    999    999.00     999   999.0   999.0  999.0  999.0
 184    9:00  999.0   999  999.0   999    999.0    999    999.00     999   999.0   999.0  999.0  999.0
 184    9:10  999.0   999  999.0   999    999.0    999    999.00     999   999.0   999.0  999.0  999.0
 184    9:20  999.0   999  999.0   999    999.0    999    999.00     999   999.0   999.0  999.0  999.0
 184    9:30  999.0   999  999.0   999    999.0    999    999.00     999   999.0   999.0  999.0  999.0
 184    9:40  999.0   999  999.0   999    999.0    999    999.00     999   999.0   999.0  999.0  999.0
 184    9:50  999.0   999  999.0   999    999.0    999    999.00     999   999.0   999.0  999.0  999.0
 184   10:00  999.0   999  999.0   999    999.0    999    999.00     999   999.0   999.0  999.0  999.0
 184   10:10  999.0   999  999.0   999    999.0    999    999.00     999   999.0   999.0  999.0  999.0
 184   10:20  999.0   999  999.0   999    999.0    999    999.00     999   999.0   999.0  999.0  999.0
 184   10:30  999.0   999  999.0   999    999.0    999    999.00     999   999.0   999.0  999.0  999.0
 184   10:40  999.0   999  999.0   999    999.0    999    999.00     999   999.0   999.0  999.0  999.0
 184   10:50  999.0   999  999.0   999    999.0    999    999.00     999   999.0   999.0  999.0  999.0
 184   11:00  999.0   999  999.0   999    999.0    999    999.00     999   999.0   999.0  999.0  999.0
 184   11:10  999.0   999  999.0   999    999.0    999    999.00     999   999.0   999.0  999.0  999.0
 184   11:20  999.0   999  999.0   999    999.0    999    999.00     999   999.0   999.0  999.0  999.0
 184   11:30  999.0   999  999.0   999    999.0    999    999.00     999   999.0   999.0  999.0  999.0
 184   11:40  999.0   999  999.0   999    999.0    999    999.00     999   999.0   999.0  999.0  999.0
 184   11:50  999.0   999  999.0   999    999.0    999    999.00     999   999.0   999.0  999.0  999.0
 184   12:00  999.0   999  999.0   999    999.0    999    999.00     999   999.0   999.0  999.0  999.0
 184   12:10  999.0   999  999.0   999    999.0    999    999.00     999   999.0   999.0  999.0  999.0
 184   12:20  999.0   999  999.0   999    999.0    999    999.00     999   999.0   999.0  999.0  999.0
 184   12:30  999.0   999  999.0   999    999.0    999    999.00     999   999.0   999.0  999.0  999.0
 184   12:40  999.0   999  999.0   999    999.0    999    999.00     999   999.0   999.0  999.0  999.0
 184   12:50  999.0   999  999.0   999    999.0    999    999.00     999   999.0   999.0  999.0  999.0
 184   13:00  999.0   999  999.0   999    999.0    999    999.00     999   999.0   999.0  999.0  999.0
 184   13:10  999.0   999  999.0   999    999.0    999    999.00     999   999.0   999.0  999.0  999.0
 184   13:20  999.0   999  999.0   999    999.0    999    999.00     999   999.0   999.0  999.0  999.0
 184   13:30  999.0   999  999.0   999    999.0    999    999.00     999   999.0   999.0  999.0  999.0
 184   13:40  999.0   999  999.0   999    999.0    999    999.00     999   999.0   999.0  999.0  999.0
 184   13:50  999.0   999  999.0   999    999.0    999    999.00     999   999.0   999.0  999.0  999.0
 184   14:00  999.0   999  999.0   999    999.0    999    999.00     999   999.0   999.0  999.0  999.0
 184   14:10  999.0   999  999.0   999    999.0    999    999.00     999   999.0   999.0  999.0  999.0
 184   14:20  999.0   999  999.0   999    999.0    999    999.00     999   999.0   999.0  999.0  999.0
 184   14:30  999.0   999  999.0   999    999.0    999    999.00     999   999.0   999.0  999.0  999.0
 184   14:40  999.0   999  999.0   999    999.0    999    999.00     999   999.0   999.0  999.0  999.0
 184   14:50  999.0   999  999.0   999    999.0    999    999.00     999   999.0   999.0  999.0  999.0
 184   15:00  999.0   999  999.0   999    999.0    999    999.00     999   999.0   999.0  999.0  999.0
 184   15:10  999.0   999  999.0   999    999.0    999    999.00     999   999.0   999.0  999.0  999.0
 184   15:20  999.0   999  999.0   999    999.0    999    999.00     999   999.0   999.0  999.0  999.0
 184   15:30  999.0   999  999.0   999    999.0    999    999.00     999   999.0   999.0  999.0  999.0
 184   15:40  999.0   999  999.0   999    999.0    999    999.00     999   999.0   999.0  999.0  999.0
 184   15:50  999.0   999  999.0   999    999.0    999    999.00     999   999.0   999.0  999.0  999.0
 184   16:00  999.0   999  999.0   999    999.0    999    999.00     999   999.0   999.0  999.0  999.0
 184   16:10  999.0   999  999.0   999    999.0    999    999.00     999   999.0   999.0  999.0  999.0
 184   16:20  999.0   999  999.0   999    999.0    999    999.00     999   999.0   999.0  999.0  999.0
 184   16:30  999.0   999  999.0   999    999.0    999    999.00     999   999.0   999.0  999.0  999.0
 184   16:40  999.0   999  999.0   999    999.0    999    999.00     999   999.0   999.0  999.0  999.0
 184   16:50  999.0   999  999.0   999    999.0    999    999.00     999   999.0   999.0  999.0  999.0
 184   17:00  999.0   999  999.0   999    999.0    999    999.00     999   999.0   999.0  999.0  999.0
 184   17:10  999.0   999  999.0   999    999.0    999    999.00     999   999.0   999.0  999.0  999.0
 184   17:20  999.0   999  999.0   999    999.0    999    999.00     999   999.0   999.0  999.0  999.0
 184   17:30  999.0   999  999.0   999    999.0    999    999.00     999   999.0   999.0  999.0  999.0
 184   17:40  999.0   999  999.0   999    999.0    999    999.00     999   999.0   999.0  999.0  999.0
 184   17:50   93.2    21   20.4   310     25.4    868     0.00      92    92.7   999.0    0.0  999.0
 184   18:00   92.0    22   20.2   312     26.1    868     0.00     131    92.8   999.0    0.0  999.0
 184   18:10   92.4    21   19.1   315     23.5    868     0.00     202    92.9   999.0    0.0  999.0
 184   18:20   92.2    21   18.1   317     22.6    868     0.00     177    93.1   999.0    0.0  999.0
 184   18:30   91.9    22   17.1   320     23.4    868     0.00     138    93.2   999.0    0.0  999.0
 184   18:40  999.0   999  999.0   999    999.0    999    999.00     999   999.0   999.0  999.0  999.0
 184   18:50   90.4    24   17.4   323     24.0    868     0.00      57    93.3   999.0    0.0  999.0
 184   19:00   89.6    24   14.7   323     21.7    868     0.00      25    93.3   999.0    0.0  999.0
 184   19:10   88.9    25   16.4   328     21.9    868     0.00      12    93.3   999.0    1.4  999.0
 184   19:20   88.2    25   14.8   329     22.3    868     0.00       7    93.3   999.0    0.0  999.0
 184   19:30   87.8    24   12.3   332     20.0    868     0.00       4    93.3   999.0    0.0  999.0
 184   19:40   87.1    25    8.4   330     12.1    868     0.00       1    93.3   999.0    0.0  999.0
 184   19:50   86.6    25    7.9   338     11.7    869     0.00       0    93.3   999.0    0.0  999.0
 184   20:00   86.3    25    6.1   313     11.0    869     0.00       0    93.3   999.0    0.0  999.0
 184   20:10   85.4    26    5.2   237     10.2    869     0.00       0    93.2   999.0    0.0  999.0
 184   20:20   85.1    27    8.0   235     10.7    869     0.00       0    93.1   999.0    0.0  999.0
 184   20:30   85.6    27    8.0   231     12.9    869     0.00       0    93.0   999.0    0.0  999.0
 184   20:40   84.9    27    7.0   240      9.6    869     0.00       0    93.0   999.0    0.0  999.0
 184   20:50   84.6    28    4.8   204      7.9    869     0.00       0    92.9   999.0    0.0  999.0
 184   21:00   85.0    27    5.5   238     11.9    869     0.00       0    92.8   999.0    0.0  999.0
 184   21:10   84.8    27    9.4   302     15.7    870     0.00       0    92.7   999.0    0.0  999.0
 184   21:20   84.3    28    8.0   311     11.5    870     0.00       0    92.6   999.0    1.2  999.0
 184   21:30   83.6    29    6.4   296      8.8    870     0.00       0    92.4   999.0    5.5  999.0
 184   21:40   83.1    29    4.2   265      5.1    870     0.00       0    92.3   999.0   13.2  999.0
 184   21:50   83.1    29    5.1   228     11.0    870     0.00       0    92.1   999.0    8.0  999.0
 184   22:00   83.5    28   10.9   223     14.9    870     0.00       0    92.0   999.0    4.6  999.0
 184   22:10   83.5    28    9.3   227     15.6    870     0.00       0    91.8   999.0    9.0  999.0
 184   22:20   83.3    28    6.4   210      9.1    870     0.00       0    91.7   999.0   11.6  999.0
 184   22:30   83.0    28    5.3   152      7.8    870     0.00       0    91.6   999.0   12.6  999.0
 184   22:40   83.1    28    7.0   141     10.9    870     0.00       0    91.4   999.0   10.6  999.0
 184   22:50   83.5    29    4.7   141      7.3    870     0.00       0    91.3   999.0    8.4  999.0
 184   23:00   83.1    29    7.9   234     13.4    869     0.00       0    91.1   999.0    9.1  999.0
 184   23:10   82.5    30   12.1   308     17.8    869     0.00       0    91.0   999.0    5.5  999.0
 184   23:20   82.7    30   15.2   293     26.4    868     0.00       0    90.9   999.0   13.1  999.0
 184   23:30   82.2    30    9.4   253     14.5    869     0.00       0    90.8   999.0    5.3  999.0
 184   23:40   82.3    29    7.0   258      9.6    869     0.00       0    90.6   999.0    3.3  999.0
 184   23:50   82.2    30    7.2   239     11.0    869     0.00       0    90.5   999.0    0.0  999.0
 185    0:00   81.4    31    7.6   221     11.7    869     0.00       0    90.4   999.0    0.0  999.0
 185    0:10   80.4    33    6.2   233      8.8    870     0.00       0    90.2   999.0    0.0  999.0
 185    0:20   79.5    34    5.8   237      8.0    870     0.00       0    90.1   999.0    0.0  999.0
 185    0:30   79.2    35    7.4   218     13.8    870     0.00       0    90.0   999.0    0.0  999.0
 185    0:40   79.1    36    8.2   236     13.6    870     0.00       0    89.9   999.0    0.0  999.0
 185    0:50  999.0   999  999.0   999    999.0    999    999.00     999   999.0   999.0  999.0  999.0
 185    1:00  999.0   999  999.0   999    999.0    999    999.00     999   999.0   999.0  999.0  999.0
 185    1:10  999.0   999  999.0   999    999.0    999    999.00     999   999.0   999.0  999.0  999.0
 185    1:20  999.0   999  999.0   999    999.0    999    999.00     999   999.0   999.0  999.0  999.0
 185    1:30  999.0   999  999.0   999    999.0    999    999.00     999   999.0   999.0  999.0  999.0
 185    1:40  999.0   999  999.0   999    999.0    999    999.00     999   999.0   999.0  999.0  999.0
 185    1:50  999.0   999  999.0   999    999.0    999    999.00     999   999.0   999.0  999.0  999.0
 185    2:00  999.0   999  999.0   999    999.0    999    999.00     999   999.0   999.0  999.0  999.0
 185    2:10  999.0   999  999.0   999    999.0    999    999.00     999   999.0   999.0  999.0  999.0
 185    2:20  999.0   999  999.0   999    999.0    999    999.00     999   999.0   999.0  999.0  999.0
 185    2:30  999.0   999  999.0   999    999.0    999    999.00     999   999.0   999.0  999.0  999.0
 185    2:40  999.0   999  999.0   999    999.0    999    999.00     999   999.0   999.0  999.0  999.0
 185    2:50  999.0   999  999.0   999    999.0    999    999.00     999   999.0   999.0  999.0  999.0
 185    3:00  999.0   999  999.0   999    999.0    999    999.00     999   999.0   999.0  999.0  999.0
 185    3:10  999.0   999  999.0   999    999.0    999    999.00     999   999.0   999.0  999.0  999.0
 185    3:20  999.0   999  999.0   999    999.0    999    999.00     999   999.0   999.0  999.0  999.0
 185    3:30  999.0   999  999.0   999    999.0    999    999.00     999   999.0   999.0  999.0  999.0
 185    3:40  999.0   999  999.0   999    999.0    999    999.00     999   999.0   999.0  999.0  999.0
 185    3:50   71.4    47    5.6   209      9.1    870     0.00       0    87.4   999.0   13.4  999.0
 185    4:00   72.3    46    6.6   218      9.6    870     0.00       0    87.3   999.0    0.0  999.0
 185    4:10   73.3    45    7.8   230     10.7    870     0.00       0    87.2   999.0    2.2  999.0
 185    4:20   73.0    46    7.8   239     10.2    870     0.00       0    87.1   999.0   11.0  999.0
 185    4:30   73.3    45    7.6   222     10.4    870     0.00       1    87.0   999.0  185.0  999.0
 185    4:40  999.0   999  999.0   999    999.0    999    999.00     999   999.0   999.0  999.0  999.0
 185    4:50   72.5    45    5.9   200      8.2    870     0.00       6    86.7   999.0    0.0  999.0
 185    5:00   71.0    47    4.9   185      6.4    870     0.00      13    86.6   999.0    0.0  999.0
 185    5:10   70.9    48    5.3   202      7.1    870     0.00      22    86.5   999.0    0.0  999.0
 185    5:20   72.2    46    6.7   201      9.9    870     0.00      39    86.3   999.0    0.0  999.0
 185    5:30   72.8    45    5.5   193      8.0    870     0.00      39    86.2   999.0    0.0  999.0
 185    5:40   73.1    45    6.7   210     10.5    870     0.00      36    86.1   999.0    0.0  999.0
 185    5:50   74.9    42    8.4   226     10.7    870     0.00      43    86.0   999.0    0.0  999.0
 185    6:00   75.3    42    7.0   214     12.3    870     0.00      49    85.9   999.0    0.6  999.0
 185    6:10   75.1    43    4.6   203      7.5    870     0.00      51    85.8   999.0    0.0  999.0
 185    6:20   75.1    42    5.1   198      7.2    870     0.00      58    85.7   999.0    0.0  999.0
 185    6:30   75.4    42    4.4   201      6.3    870     0.00      61    85.6   999.0    0.0  999.0
 185    6:40   75.7    42    4.6   203      6.9    870     0.00      61    85.5   999.0    5.5  999.0
 185    6:50   76.2    41    6.9   199      8.8    870     0.00      75    85.4   999.0    9.4  999.0
 185    7:00   77.1    40    7.5   219     13.7    870     0.00     121    85.3   999.0    0.9  999.0
 185    7:10   77.8    40   10.7   219     15.4    870     0.00     172    85.2   999.0    0.0  999.0
 185    7:20   78.4    40    9.6   237     13.4    870     0.00     216    85.1   999.0    0.0  999.0
 185    7:30   78.7    39   11.4   236     15.2    870     0.00     236    85.1   999.0    0.0  999.0
 185    7:40   79.1    38   10.2   232     14.0    870     0.00     265    85.0   999.0    0.0  999.0
 185    7:50   79.8    38   10.8   236     14.5    870     0.00     329    84.9   999.0    0.0  999.0
 185    8:00   80.2    37   10.1   236     16.0    870     0.00     337    84.8   999.0    0.0  999.0
 185    8:10   80.4    37    9.8   228     13.2    870     0.00     321    84.8   999.0    0.0  999.0
 185    8:20   80.8    36    9.4   233     15.5    871     0.00     362    84.7   999.0    0.0  999.0
 185    8:30   81.5    36   12.8   240     17.0    871     0.00     474    84.7   999.0    0.0  999.0
 185    8:40   81.8    36   11.7   246     16.7    871     0.00     418    84.6   999.0    0.0  999.0

Return to Fairview Valley graphs page.


Western Regional Climate Center,wrcc@dri.edu